• Join FlightAware (Why Join?)
  • Login
  • US Flag 
09:21AM EDT


 

Airport Tracker/Info


-or-


 

Live Flight TrackerFlight Track Log ✈ SKW7363 ✈ 18-Aug-2013 ✈ KSLC - KCOD

Flight Track Log - Related Links

Times and Time Zones

All times are in EDT time to prevent confusion due to time zone crossing. See the SKW7363 flight status page for this flight to view local times or setup timezone preferences in your user account.

Time Position Orientation Groundspeed Altitude Reporting Facility
EDT Latitude Longitude Course Direction KTS MPH feet Rate Location/Type
08:11PM 40.8153 -112.0019 355° North 182 209 5,100  Level Salt Lake Center
08:12PM 40.8881 -112.0111 355° North 234 269 6,800 1,380 Climbing Salt Lake Center
08:13PM 40.9256 -112.0139 357° North 250 288 7,800 2,220 Climbing Salt Lake Center
08:14PM 41.0158 -112.0178 358° North 269 310 10,700 2,280 Climbing Salt Lake Center
08:15PM 41.0903 -112.0019 North 277 319 12,600 1,800 Climbing Salt Lake Center
08:16PM 41.1458 -111.9258 46° Northeast 285 328 14,500 1,800 Climbing Salt Lake Center
08:17PM 41.2036 -111.8464 46° Northeast 295 339 16,400 1,740 Climbing Salt Lake Center
08:18PM 41.2761 -111.7892 31° Northeast 302 348 18,100 1,560 Climbing Salt Lake Center
08:19PM 41.3525 -111.7333 29° Northeast 309 356 19,600 1,380 Climbing Salt Lake Center
08:20PM 41.4372 -111.6914 20° North 325 374 21,000 1,320 Climbing Salt Lake Center
08:21PM 41.5264 -111.6550 17° North 336 387 22,400 1,260 Climbing Salt Lake Center
08:22PM 41.6167 -111.6200 16° North 340 391 23,700 1,320 Climbing Salt Lake Center
08:23PM 41.7267 -111.5756 17° North 346 398 25,200 1,320 Climbing Salt Lake Center
08:24PM 41.8214 -111.5403 16° North 353 406 26,500 840 Climbing Salt Lake Center
08:25PM 41.9189 -111.5208 North 355 409 27,000 240 Climbing Salt Lake Center
08:26PM 42.0247 -111.4967 10° North 384 442 27,000  Level Salt Lake Center
08:27PM 42.1106 -111.4133 36° Northeast 394 453 27,000  Level Salt Lake Center
08:28PM 42.1775 -111.3039 50° Northeast 378 435 27,000  Level Salt Lake Center
08:29PM 42.2608 -111.2294 33° Northeast 359 413 27,000  Level Salt Lake Center
08:30PM 42.3603 -111.1397 34° Northeast 358 412 27,000  Level Salt Lake Center
08:31PM 42.4417 -111.0636 35° Northeast 357 411 27,000  Level Salt Lake Center
08:32PM 42.5236 -110.9886 34° Northeast 356 410 27,000  Level Salt Lake Center
08:33PM 42.6114 -110.9086 34° Northeast 357 411 27,000  Level Salt Lake Center
08:34PM 42.6903 -110.8358 34° Northeast 357 411 27,000  Level Salt Lake Center
08:35PM 42.7792 -110.7514 35° Northeast 362 417 27,000  Level Salt Lake Center
08:36PM 42.8583 -110.6778 34° Northeast 360 414 27,000  Level Salt Lake Center
08:37PM 42.9486 -110.5928 35° Northeast 356 410 27,000  Level Salt Lake Center
08:39PM 43.0258 -110.5225 34° Northeast 350 403 27,000  Level Salt Lake Center
08:40PM 43.1175 -110.4353 35° Northeast 358 412 27,000  Level Salt Lake Center
08:41PM 43.1950 -110.3622 34° Northeast 355 409 27,000  Level Salt Lake Center
08:42PM 43.2794 -110.2800 35° Northeast 366 421 27,000  Level Salt Lake Center
08:43PM 43.3722 -110.1892 35° Northeast 365 420 27,000  Level Salt Lake Center
08:44PM 43.4506 -110.1147 35° Northeast 359 413 27,000  Level Salt Lake Center
08:45PM 43.5358 -110.0319 35° Northeast 356 410 27,000  Level Salt Lake Center
08:46PM 43.6283 -109.9447 34° Northeast 360 414 27,000  Level Salt Lake Center
08:47PM 43.7053 -109.8708 35° Northeast 356 410 27,000 -1,320 Level Salt Lake Center
08:48PM 43.7839 -109.7947 35° Northeast 360 414 24,300 -2,760 Descending Salt Lake Center
08:49PM 43.8844 -109.6958 35° Northeast 389 448 21,300 -2,400 Descending Salt Lake Center
08:50PM 43.9633 -109.6186 35° Northeast 377 434 19,400 -2,280 Descending Salt Lake Center
08:51PM 44.0553 -109.5308 34° Northeast 357 411 16,700 -2,160 Descending Salt Lake Center
08:52PM 44.1322 -109.4564 35° Northeast 357 411 15,000 -840 Descending Salt Lake Center
08:53PM 44.2006 -109.3889 35° Northeast 315 362 15,000  Level Salt Lake Center
08:54PM 44.2619 -109.3281 35° Northeast 280 322 15,000  Level Salt Lake Center
08:55PM 44.3350 -109.2547 36° Northeast 272 313 15,000 -540 Level Salt Lake Center
08:56PM 44.3958 -109.1936 36° Northeast 270 311 14,000 -1,080 Descending Salt Lake Center
08:57PM 44.4553 -109.1344 35° Northeast 266 306 12,800 -1,500 Descending Salt Lake Center
08:58PM 44.4919 -109.0428 61° Northeast 280 322 11,000 -1,260 Descending Salt Lake Center
08:59PM 44.5117 -108.9503 73° East 263 303 10,200 -1,200 Descending Salt Lake Center
09:00PM 44.5358 -108.8689 67° East 244 281 8,600 -1,260 Descending Salt Lake Center
09:01PM 44.5819 -108.8606 North 217 250 7,600 -1,020 Descending Salt Lake Center
09:02PM 44.5742 -108.9333 261° West 189 217 6,600 -960 Descending Salt Lake Center
09:03PM 44.5447 -108.9814 229° Southwest 175 201 5,700 -900 Descending Salt Lake Center
09:05PM 44.5167 -109.0167 261° West  Level FlightAware Approximate